createdAt,value
2022-08-20T00:01:17.455Z,32.42
2022-08-20T00:03:44.713Z,32.58
2022-08-20T00:06:22.985Z,32.44
2022-08-20T00:08:50.440Z,32.44
2022-08-20T00:11:21.803Z,32.80
2022-08-20T00:13:55.391Z,32.79
2022-08-20T00:16:24.643Z,32.42
2022-08-20T00:18:51.612Z,32.53
2022-08-20T00:21:20.844Z,32.56
2022-08-20T00:23:50.323Z,32.43
2022-08-20T00:26:18.285Z,32.25
2022-08-20T00:28:45.288Z,32.50
2022-08-20T00:31:17.660Z,32.92
2022-08-20T00:33:44.890Z,32.54
2022-08-20T00:36:12.618Z,32.66
2022-08-20T00:38:42.953Z,32.91
2022-08-20T00:41:13.024Z,33.03
2022-08-20T00:43:43.537Z,33.18
2022-08-20T00:46:15.997Z,32.58
2022-08-20T00:48:44.980Z,32.98
2022-08-20T00:51:18.303Z,32.75
2022-08-20T00:53:45.619Z,32.70
2022-08-20T00:56:12.916Z,33.66
2022-08-20T00:58:42.294Z,33.20
2022-08-20T01:01:09.696Z,32.90
2022-08-20T01:03:37.078Z,33.05
2022-08-20T01:06:04.668Z,33.62
2022-08-20T01:08:31.622Z,33.21
2022-08-20T01:11:16.175Z,33.28
2022-08-20T01:13:45.260Z,33.22
2022-08-20T01:16:19.062Z,33.13
2022-08-20T01:18:48.351Z,32.89
2022-08-20T01:21:21.412Z,33.24
2022-08-20T01:24:06.548Z,33.48
2022-08-20T01:26:39.858Z,33.22
2022-08-20T01:29:14.772Z,33.48
2022-08-20T01:31:42.977Z,33.42
2022-08-20T01:34:15.450Z,33.95
2022-08-20T01:36:54.800Z,34.06
2022-08-20T01:39:30.582Z,33.27
2022-08-20T01:42:05.686Z,33.45
2022-08-20T01:44:33.714Z,33.77
2022-08-20T01:47:09.991Z,33.79
2022-08-20T01:49:43.989Z,33.65
2022-08-20T01:52:17.853Z,33.91
2022-08-20T01:54:46.000Z,34.56
2022-08-20T01:57:17.029Z,34.69
2022-08-20T01:59:44.741Z,35.67
2022-08-20T02:02:12.942Z,34.57
2022-08-20T02:04:41.064Z,34.52
2022-08-20T02:07:14.537Z,34.48
2022-08-20T02:09:41.987Z,35.06
2022-08-20T02:12:10.301Z,35.00
2022-08-20T02:14:45.951Z,34.55
2022-08-20T02:17:13.749Z,34.61
2022-08-20T02:19:45.463Z,34.22
2022-08-20T02:22:23.611Z,34.38
2022-08-20T02:24:51.402Z,34.31
2022-08-20T02:27:19.050Z,34.77
2022-08-20T02:29:46.851Z,34.62
2022-08-20T02:32:25.155Z,34.69
2022-08-20T02:35:03.452Z,34.63
2022-08-20T02:37:30.514Z,34.71
2022-08-20T02:39:57.359Z,34.98
2022-08-20T02:42:24.191Z,35.09
2022-08-20T02:44:51.745Z,35.37
2022-08-20T02:47:18.781Z,35.18
2022-08-20T02:49:45.680Z,35.37
2022-08-20T02:52:12.390Z,35.52
2022-08-20T02:54:39.107Z,35.59
2022-08-20T02:57:06.144Z,35.52
2022-08-20T02:59:33.626Z,35.78
2022-08-20T03:02:01.325Z,35.91
2022-08-20T03:04:29.738Z,35.64
2022-08-20T03:06:57.439Z,36.31
2022-08-20T03:09:24.472Z,36.11
2022-08-20T03:11:51.406Z,36.18
2022-08-20T03:14:18.310Z,35.69
2022-08-20T03:16:45.117Z,36.27
2022-08-20T03:19:13.420Z,36.64
2022-08-20T03:21:40.413Z,36.41
2022-08-20T03:24:07.475Z,36.05
2022-08-20T03:26:34.228Z,35.89
2022-08-20T03:29:01.258Z,36.05
2022-08-20T03:31:27.995Z,36.03
2022-08-20T03:33:54.871Z,36.12
2022-08-20T03:36:28.511Z,36.02
2022-08-20T03:39:01.773Z,35.83
2022-08-20T03:41:29.099Z,36.74
2022-08-20T03:43:56.039Z,36.47
2022-08-20T03:46:24.047Z,37.54
2022-08-20T03:49:00.367Z,37.23
2022-08-20T03:51:57.425Z,36.90
2022-08-20T03:54:19.079Z,36.40
2022-08-20T03:56:45.881Z,36.36
2022-08-20T03:59:12.824Z,36.33
2022-08-20T04:01:46.416Z,36.32
2022-08-20T04:04:14.846Z,36.84
2022-08-20T04:06:42.409Z,36.56
2022-08-20T04:09:12.223Z,36.65
2022-08-20T04:11:43.031Z,36.50
2022-08-20T04:14:11.719Z,36.63
2022-08-20T04:16:43.851Z,36.75
2022-08-20T04:19:12.753Z,36.59
2022-08-20T04:21:39.663Z,36.91
2022-08-20T04:24:06.552Z,36.93
2022-08-20T04:26:36.380Z,37.20
2022-08-20T04:29:03.853Z,37.41
2022-08-20T04:31:33.898Z,37.46
2022-08-20T04:34:07.921Z,37.13
2022-08-20T04:36:35.584Z,37.18
2022-08-20T04:39:02.377Z,37.20
2022-08-20T04:41:29.220Z,37.17
2022-08-20T04:43:56.918Z,36.97
2022-08-20T04:46:28.777Z,37.08
2022-08-20T04:48:57.373Z,36.56
2022-08-20T04:51:24.926Z,36.80
2022-08-20T04:53:53.951Z,37.42
2022-08-20T04:56:29.905Z,37.06
2022-08-20T04:58:59.608Z,37.06
2022-08-20T05:01:27.767Z,36.59
2022-08-20T05:03:55.865Z,36.57
2022-08-20T05:06:25.840Z,36.48
2022-08-20T05:08:53.799Z,37.36
2022-08-20T05:11:32.862Z,38.08
2022-08-20T05:14:02.524Z,38.63
2022-08-20T05:16:29.691Z,37.23
2022-08-20T05:18:56.661Z,37.30
2022-08-20T05:21:23.383Z,37.15
2022-08-20T05:23:50.221Z,39.13
2022-08-20T05:26:20.175Z,38.59
2022-08-20T05:28:57.842Z,38.11
2022-08-20T05:31:31.457Z,37.69
2022-08-20T05:34:04.176Z,37.47
2022-08-20T05:36:31.158Z,37.25
2022-08-20T05:38:58.024Z,36.90
2022-08-20T05:41:28.462Z,36.79
2022-08-20T05:44:00.686Z,38.00
2022-08-20T05:46:28.096Z,36.33
2022-08-20T05:48:54.976Z,36.64
2022-08-20T05:51:26.326Z,36.71
2022-08-20T05:53:53.052Z,36.41
2022-08-20T05:56:19.840Z,37.08
2022-08-20T05:58:53.741Z,36.95
2022-08-20T06:01:20.510Z,36.49
2022-08-20T06:04:05.795Z,37.74
2022-08-20T06:06:45.853Z,36.64
2022-08-20T06:09:16.373Z,36.66
2022-08-20T06:11:43.213Z,36.90
2022-08-20T06:14:10.100Z,36.54
2022-08-20T06:16:37.581Z,36.46
2022-08-20T06:19:06.207Z,35.85
2022-08-20T06:21:38.476Z,36.22
2022-08-20T06:24:06.788Z,35.70
2022-08-20T06:26:34.554Z,36.03
2022-08-20T06:29:03.361Z,35.48
2022-08-20T06:31:30.203Z,35.49
2022-08-20T06:33:57.245Z,35.46
2022-08-20T06:36:24.911Z,35.64
2022-08-20T06:38:52.068Z,35.70
2022-08-20T06:41:18.902Z,36.51
2022-08-20T06:43:46.515Z,36.70
2022-08-20T06:46:14.616Z,36.53
2022-08-20T06:48:41.444Z,35.67
2022-08-20T06:51:09.831Z,35.50
2022-08-20T06:53:37.057Z,36.77
2022-08-20T06:56:04.504Z,36.62
2022-08-20T06:58:37.191Z,36.65
2022-08-20T07:01:11.280Z,36.20
2022-08-20T07:03:42.374Z,36.11
2022-08-20T07:06:25.663Z,34.80
2022-08-20T07:08:54.146Z,35.44
2022-08-20T07:11:39.964Z,34.68
2022-08-20T07:14:06.789Z,35.23
2022-08-20T07:16:33.608Z,35.04
2022-08-20T07:19:00.491Z,35.21
2022-08-20T07:21:27.227Z,33.96
2022-08-20T07:23:54.145Z,35.62
2022-08-20T07:26:20.953Z,34.49
2022-08-20T07:28:47.819Z,33.92
2022-08-20T07:31:34.882Z,33.58
2022-08-20T07:34:02.656Z,34.02
2022-08-20T07:36:30.381Z,34.55
2022-08-20T07:38:57.399Z,33.49
2022-08-20T07:41:24.160Z,33.75
2022-08-20T07:43:51.143Z,33.33
2022-08-20T07:46:20.596Z,33.30
2022-08-20T07:48:50.207Z,34.01
2022-08-20T07:51:20.717Z,32.94
2022-08-20T07:53:49.248Z,32.99
2022-08-20T07:56:24.524Z,33.00
2022-08-20T07:58:55.541Z,33.15
2022-08-20T08:01:32.464Z,32.58
2022-08-20T08:04:00.698Z,32.36
2022-08-20T08:06:31.142Z,32.14
2022-08-20T08:09:08.402Z,32.46
2022-08-20T08:11:39.730Z,32.24
2022-08-20T08:14:10.120Z,33.42
2022-08-20T08:16:37.822Z,31.94
2022-08-20T08:19:07.568Z,32.00
2022-08-20T08:21:34.686Z,32.56
2022-08-20T08:24:02.577Z,32.62
2022-08-20T08:26:29.581Z,32.09
2022-08-20T08:28:58.316Z,32.24
2022-08-20T08:31:26.042Z,31.41
2022-08-20T08:33:52.854Z,31.73
2022-08-20T08:36:19.931Z,31.29
2022-08-20T08:38:47.079Z,31.33
2022-08-20T08:41:31.318Z,31.58
2022-08-20T08:44:13.944Z,31.01
2022-08-20T08:46:48.421Z,31.75
2022-08-20T08:49:20.292Z,31.11
2022-08-20T08:52:05.042Z,31.03
2022-08-20T08:54:35.219Z,30.44
2022-08-20T08:57:02.793Z,30.74
2022-08-20T08:59:56.215Z,30.29
2022-08-20T09:02:26.068Z,29.44
2022-08-20T09:04:56.575Z,29.80
2022-08-20T09:07:26.373Z,30.43
2022-08-20T09:09:53.542Z,29.16
2022-08-20T09:12:23.755Z,28.80
2022-08-20T09:14:51.805Z,29.10
2022-08-20T09:17:21.477Z,29.45
2022-08-20T09:19:50.228Z,28.13
2022-08-20T09:22:21.782Z,28.25
2022-08-20T09:24:50.347Z,28.71
2022-08-20T09:27:18.132Z,28.70
2022-08-20T09:29:45.683Z,28.00
2022-08-20T09:32:17.739Z,27.97
2022-08-20T09:34:47.616Z,29.10
2022-08-20T09:37:15.353Z,27.51
2022-08-20T09:39:43.069Z,28.01
2022-08-20T09:42:15.559Z,27.67
2022-08-20T09:44:43.005Z,27.73
2022-08-20T09:47:10.787Z,27.93
2022-08-20T09:49:39.034Z,27.07
2022-08-20T09:52:09.102Z,27.47
2022-08-20T09:54:37.686Z,27.42
2022-08-20T09:57:07.553Z,27.54
2022-08-20T09:59:35.375Z,28.26
2022-08-20T10:02:02.563Z,27.08
2022-08-20T10:04:29.933Z,28.07
2022-08-20T10:06:56.924Z,26.61
2022-08-20T10:09:24.433Z,27.03
2022-08-20T10:11:51.185Z,27.60
2022-08-20T10:14:18.048Z,25.43
2022-08-20T10:16:44.822Z,26.79
2022-08-20T10:19:11.880Z,26.71
2022-08-20T10:21:39.366Z,26.12
2022-08-20T10:24:06.454Z,26.22
2022-08-20T10:26:33.842Z,25.78
2022-08-20T10:29:00.571Z,25.74
2022-08-20T10:31:27.303Z,25.40
2022-08-20T10:33:54.220Z,24.82
2022-08-20T10:36:21.204Z,24.62
2022-08-20T10:38:49.116Z,26.30
2022-08-20T10:41:16.004Z,24.77
2022-08-20T10:43:42.807Z,24.24
2022-08-20T10:46:09.823Z,24.25
2022-08-20T10:48:36.797Z,25.00
2022-08-20T10:51:03.942Z,24.77
2022-08-20T10:53:31.189Z,24.50
2022-08-20T10:55:58.269Z,23.10
2022-08-20T10:58:26.628Z,24.08
2022-08-20T11:01:04.993Z,24.38
2022-08-20T11:03:31.792Z,23.89
2022-08-20T11:05:58.677Z,24.23
2022-08-20T11:08:33.586Z,24.35
2022-08-20T11:11:01.903Z,23.68
2022-08-20T11:13:28.780Z,24.72
2022-08-20T11:15:55.710Z,24.53
2022-08-20T11:18:22.595Z,24.62
2022-08-20T11:20:49.435Z,24.37
2022-08-20T11:23:16.389Z,24.86
2022-08-20T11:25:43.214Z,24.73
2022-08-20T11:28:10.239Z,24.08
2022-08-20T11:30:37.674Z,25.16
2022-08-20T11:33:05.569Z,24.73
2022-08-20T11:35:48.236Z,24.47
2022-08-20T11:38:17.017Z,24.74
2022-08-20T11:40:43.840Z,25.02
2022-08-20T11:43:16.286Z,24.83
2022-08-20T11:45:46.431Z,24.74
2022-08-20T11:48:13.297Z,24.78
2022-08-20T11:50:40.437Z,24.57
2022-08-20T11:53:07.938Z,25.22
2022-08-20T11:55:35.720Z,25.22
2022-08-20T11:58:02.927Z,25.01
2022-08-20T12:00:32.769Z,23.97
2022-08-20T12:03:05.378Z,23.32
2022-08-20T12:05:33.098Z,23.74
2022-08-20T12:08:03.576Z,23.50
2022-08-20T12:10:31.392Z,23.80
2022-08-20T12:12:58.628Z,25.64
2022-08-20T12:15:26.887Z,24.50
2022-08-20T12:17:54.952Z,25.29
2022-08-20T12:20:23.582Z,25.73
2022-08-20T12:22:50.932Z,25.83
2022-08-20T12:25:18.094Z,24.86
2022-08-20T12:27:46.132Z,26.68
2022-08-20T12:30:19.867Z,25.97
2022-08-20T12:32:47.556Z,27.91
2022-08-20T12:35:16.409Z,26.69
2022-08-20T12:37:45.616Z,26.92
2022-08-20T12:40:17.116Z,28.62
2022-08-20T12:42:51.734Z,28.51
2022-08-20T12:45:19.362Z,33.68
2022-08-20T12:47:48.038Z,39.20
2022-08-20T12:50:21.928Z,42.58
2022-08-20T12:52:48.912Z,45.82
2022-08-20T12:55:19.101Z,46.93
2022-08-20T12:57:49.871Z,48.06
2022-08-20T13:00:22.609Z,46.37
2022-08-20T13:02:53.654Z,46.20
2022-08-20T13:05:21.154Z,43.52
2022-08-20T13:07:48.565Z,44.67
2022-08-20T13:10:23.291Z,44.94
2022-08-20T13:12:50.790Z,42.37
2022-08-20T13:15:18.670Z,44.12
2022-08-20T13:17:45.741Z,46.29
2022-08-20T13:20:15.519Z,45.58
2022-08-20T13:22:42.757Z,46.60
2022-08-20T13:25:12.343Z,46.35
2022-08-20T13:27:42.072Z,46.92
2022-08-20T13:30:12.381Z,47.06
2022-08-20T13:32:39.353Z,48.71
2022-08-20T13:35:06.521Z,49.31
2022-08-20T13:37:33.683Z,48.92
2022-08-20T13:40:03.219Z,49.10
2022-08-20T13:42:30.163Z,50.11
2022-08-20T13:44:57.095Z,50.75
2022-08-20T13:47:28.513Z,51.52
2022-08-20T13:49:58.559Z,51.21
2022-08-20T13:52:26.288Z,51.20
2022-08-20T13:54:54.084Z,51.43
2022-08-20T13:57:22.998Z,50.26
2022-08-20T13:59:52.535Z,52.55
2022-08-20T14:02:20.979Z,52.94
2022-08-20T14:04:49.149Z,51.08
2022-08-20T14:07:28.891Z,50.92
2022-08-20T14:10:01.681Z,50.01
2022-08-20T14:12:28.795Z,49.11
2022-08-20T14:14:58.137Z,49.29
2022-08-20T14:17:26.728Z,47.95
2022-08-20T14:20:00.926Z,49.07
2022-08-20T14:22:29.508Z,48.95
2022-08-20T14:24:56.806Z,50.50
2022-08-20T14:27:27.805Z,49.57
2022-08-20T14:29:58.567Z,51.86
2022-08-20T14:32:26.380Z,52.18
2022-08-20T14:34:56.692Z,53.02
2022-08-20T14:37:26.744Z,51.20
2022-08-20T14:39:57.038Z,53.34
2022-08-20T14:42:26.583Z,53.41
2022-08-20T14:44:57.033Z,52.62
2022-08-20T14:47:30.270Z,54.60
2022-08-20T14:50:02.561Z,54.11
2022-08-20T14:52:33.033Z,53.28
2022-08-20T14:54:59.803Z,52.73
2022-08-20T14:57:26.734Z,52.68
2022-08-20T14:59:53.759Z,52.49
2022-08-20T15:02:20.656Z,51.84
2022-08-20T15:04:54.221Z,51.91
2022-08-20T15:07:31.025Z,53.10
2022-08-20T15:09:58.360Z,51.04
2022-08-20T15:12:25.148Z,51.33
2022-08-20T15:14:52.160Z,50.33
2022-08-20T15:17:25.916Z,50.31
2022-08-20T15:19:53.469Z,50.05
2022-08-20T15:22:21.696Z,49.38
2022-08-20T15:24:48.931Z,51.71
2022-08-20T15:27:22.317Z,54.19
2022-08-20T15:29:55.104Z,52.86
2022-08-20T15:32:22.400Z,51.42
2022-08-20T15:34:49.862Z,51.98
2022-08-20T15:37:23.121Z,54.14
2022-08-20T15:39:51.360Z,54.75
2022-08-20T15:42:20.116Z,55.83
2022-08-20T15:44:47.706Z,53.76
2022-08-20T15:47:29.614Z,54.55
2022-08-20T15:50:04.722Z,55.60
2022-08-20T15:52:43.391Z,55.98
2022-08-20T15:55:13.363Z,56.68
2022-08-20T15:57:59.901Z,57.23
2022-08-20T16:00:37.774Z,57.30
2022-08-20T16:03:22.349Z,56.24
2022-08-20T16:06:03.790Z,54.50
2022-08-20T16:08:58.279Z,54.09
2022-08-20T16:11:25.000Z,54.27
2022-08-20T16:13:55.203Z,59.74
2022-08-20T16:16:33.747Z,58.51
2022-08-20T16:19:00.747Z,55.76
2022-08-20T16:21:34.795Z,54.85
2022-08-20T16:24:01.830Z,52.58
2022-08-20T16:26:34.672Z,52.77
2022-08-20T16:29:18.177Z,52.18
2022-08-20T16:32:01.518Z,51.48
2022-08-20T16:34:34.916Z,51.04
2022-08-20T16:37:28.759Z,51.27
2022-08-20T16:40:09.964Z,51.82
2022-08-20T16:42:40.659Z,51.15
2022-08-20T16:45:13.717Z,50.88
2022-08-20T16:47:43.373Z,50.66
2022-08-20T16:50:16.972Z,50.75
2022-08-20T16:52:46.528Z,50.51
2022-08-20T16:55:14.454Z,50.41
2022-08-20T16:57:41.295Z,50.43
2022-08-20T17:00:30.444Z,50.85
2022-08-20T17:03:00.892Z,52.19
2022-08-20T17:05:45.843Z,50.75
2022-08-20T17:08:23.143Z,50.68
2022-08-20T17:10:58.131Z,51.64
2022-08-20T17:13:32.467Z,50.66
2022-08-20T17:16:03.622Z,50.37
2022-08-20T17:18:34.749Z,51.21
2022-08-20T17:21:12.332Z,51.75
2022-08-20T17:23:55.604Z,51.28
2022-08-20T17:26:46.105Z,52.96
2022-08-20T17:29:18.079Z,52.69
2022-08-20T17:31:50.386Z,52.91
2022-08-20T17:34:24.053Z,52.13
2022-08-20T17:37:08.159Z,51.51
2022-08-20T17:39:35.332Z,53.51
2022-08-20T17:42:14.035Z,53.79
2022-08-20T17:44:51.212Z,55.14
2022-08-20T17:47:25.532Z,54.29
2022-08-20T17:50:02.592Z,55.32
2022-08-20T17:52:48.868Z,55.67
2022-08-20T17:55:16.249Z,55.27
2022-08-20T17:57:45.342Z,54.34
2022-08-20T18:00:23.683Z,56.19
2022-08-20T18:02:58.865Z,56.25
2022-08-20T18:05:28.807Z,55.63
2022-08-20T18:08:21.507Z,54.34
2022-08-20T18:11:01.205Z,53.42
2022-08-20T18:13:44.972Z,54.11
2022-08-20T18:16:25.518Z,55.18
2022-08-20T18:19:12.748Z,54.97
2022-08-20T18:22:01.386Z,54.10
2022-08-20T18:24:37.182Z,53.69
2022-08-20T18:27:14.124Z,53.80
2022-08-20T18:29:44.811Z,54.07
2022-08-20T18:32:30.260Z,54.71
2022-08-20T18:35:10.465Z,54.51
2022-08-20T18:37:37.827Z,54.99
2022-08-20T18:40:16.823Z,54.38
2022-08-20T18:42:45.856Z,53.82
2022-08-20T18:45:12.768Z,55.87
2022-08-20T18:47:46.952Z,55.59
2022-08-20T18:50:20.331Z,55.26
2022-08-20T18:52:49.012Z,56.35
2022-08-20T18:55:33.386Z,56.45
2022-08-20T18:58:04.271Z,55.35
2022-08-20T19:00:38.692Z,55.60
2022-08-20T19:03:08.426Z,55.22
2022-08-20T19:06:02.178Z,52.94
2022-08-20T19:08:44.794Z,52.23
2022-08-20T19:11:28.492Z,53.26
2022-08-20T19:14:23.117Z,53.36
2022-08-20T19:16:58.769Z,54.80
2022-08-20T19:19:29.557Z,54.70
2022-08-20T19:22:05.874Z,54.40
2022-08-20T19:24:35.789Z,54.88
2022-08-20T19:27:07.985Z,53.68
2022-08-20T19:29:42.174Z,53.15
2022-08-20T19:32:17.777Z,54.08
2022-08-20T19:34:52.691Z,52.78
2022-08-20T19:37:39.726Z,52.82
2022-08-20T19:40:38.900Z,53.91
2022-08-20T19:43:15.968Z,53.45
2022-08-20T19:45:54.423Z,53.77
2022-08-20T19:48:38.779Z,54.73
2022-08-20T19:51:08.866Z,54.27
2022-08-20T19:53:44.897Z,53.11
2022-08-20T19:56:18.791Z,54.55
2022-08-20T19:58:46.500Z,53.53
2022-08-20T20:01:20.898Z,53.94
2022-08-20T20:04:02.763Z,54.30
2022-08-20T20:06:33.979Z,55.67
2022-08-20T20:09:04.864Z,55.03
2022-08-20T20:11:35.977Z,55.28
2022-08-20T20:14:11.881Z,54.51
2022-08-20T20:16:40.425Z,53.76
2022-08-20T20:19:27.964Z,53.77
2022-08-20T20:22:24.154Z,53.48
2022-08-20T20:24:59.898Z,53.43
2022-08-20T20:27:28.846Z,53.43
2022-08-20T20:30:06.170Z,53.41
2022-08-20T20:32:34.074Z,54.07
2022-08-20T20:35:04.892Z,53.48
2022-08-20T20:37:50.827Z,54.00
2022-08-20T20:40:27.712Z,53.27
2022-08-20T20:43:05.080Z,52.93
2022-08-20T20:45:35.045Z,54.39
2022-08-20T20:48:28.498Z,54.06
2022-08-20T20:51:11.815Z,53.60
2022-08-20T20:53:47.544Z,53.51
2022-08-20T20:56:42.936Z,54.43
2022-08-20T20:59:10.947Z,53.89
2022-08-20T21:01:50.238Z,53.31
2022-08-20T21:04:25.060Z,53.36
2022-08-20T21:06:54.416Z,53.11
2022-08-20T21:09:22.599Z,53.34
2022-08-20T21:11:49.854Z,52.25
2022-08-20T21:14:18.011Z,51.82
2022-08-20T21:16:45.421Z,52.08
2022-08-20T21:19:12.659Z,52.51
2022-08-20T21:21:40.197Z,51.53
2022-08-20T21:24:08.039Z,51.25
2022-08-20T21:26:36.004Z,51.41
2022-08-20T21:29:04.214Z,52.92
2022-08-20T21:31:34.688Z,52.84
2022-08-20T21:34:02.146Z,54.05
2022-08-20T21:36:28.909Z,53.56
2022-08-20T21:38:56.231Z,52.74
2022-08-20T21:41:25.134Z,52.60
2022-08-20T21:43:58.643Z,52.14
2022-08-20T21:46:26.036Z,52.84
2022-08-20T21:48:52.970Z,52.61
2022-08-20T21:51:19.759Z,52.54
2022-08-20T21:53:46.980Z,51.63
2022-08-20T21:56:13.720Z,51.58
2022-08-20T21:58:40.572Z,54.85
2022-08-20T22:01:07.929Z,55.46
2022-08-20T22:03:38.901Z,53.18
2022-08-20T22:06:11.694Z,54.11
2022-08-20T22:08:39.201Z,54.48
2022-08-20T22:11:08.721Z,54.84
2022-08-20T22:13:36.184Z,54.72
2022-08-20T22:16:07.440Z,56.99
2022-08-20T22:18:35.790Z,56.01
2022-08-20T22:21:06.260Z,56.28
2022-08-20T22:23:32.976Z,55.97
2022-08-20T22:25:59.938Z,55.35
2022-08-20T22:28:26.763Z,54.90
2022-08-20T22:30:53.798Z,54.06
2022-08-20T22:33:22.823Z,53.59
2022-08-20T22:35:53.934Z,54.30
2022-08-20T22:38:21.160Z,53.97
2022-08-20T22:40:48.589Z,53.08
2022-08-20T22:43:16.154Z,53.06
2022-08-20T22:45:45.776Z,53.56
2022-08-20T22:48:17.214Z,53.04
2022-08-20T22:50:45.095Z,54.02
2022-08-20T22:53:12.987Z,53.56
2022-08-20T22:55:40.045Z,53.79
2022-08-20T22:58:07.023Z,53.29
2022-08-20T23:00:34.643Z,53.58
2022-08-20T23:03:03.251Z,53.35
2022-08-20T23:05:33.605Z,53.21
2022-08-20T23:08:00.928Z,52.96
2022-08-20T23:10:30.355Z,53.00
2022-08-20T23:12:57.454Z,53.17
2022-08-20T23:15:27.571Z,53.21
2022-08-20T23:18:00.460Z,52.89
2022-08-20T23:20:27.468Z,52.85
2022-08-20T23:22:54.738Z,52.89
2022-08-20T23:25:21.807Z,52.74
2022-08-20T23:27:53.651Z,53.23
2022-08-20T23:30:21.899Z,53.15
2022-08-20T23:32:49.079Z,52.86
2022-08-20T23:35:15.996Z,52.72
2022-08-20T23:37:46.447Z,53.13
2022-08-20T23:40:14.748Z,53.13
2022-08-20T23:42:41.852Z,52.85
2022-08-20T23:45:09.324Z,53.05
2022-08-20T23:47:36.303Z,53.16
2022-08-20T23:50:04.901Z,52.58
2022-08-20T23:52:32.063Z,51.98
2022-08-20T23:54:58.986Z,52.26
2022-08-20T23:57:25.979Z,52.48
2022-08-20T23:59:53.039Z,52.32
